Jump to content
  • Member Statistics

    16,958
    Total Members
    7,904
    Most Online
    NHDrySlot
    Newest Member
    NHDrySlot
    Joined

February 14-16 Winter Storm Part 2


Hoosier
 Share

Recommended Posts

Just now, OhioWX said:

Very impressive snowfall rates around here. ILN tweeted about rates as high as 1.5" per hour. Sadly, I don't think it'll stick around long enough for any significant accumulation.

I guess it depends on what you consider significant. It could probably be here til like 1 am, which could give you theoretically 6-ish inches. That's significant.

Link to comment
Share on other sites

Took a Jeb walk and took the measuring stick with me. Hard to measure, but averaging many measurements, I'm confident that at 9:00 EST, I had 7.4". Probably another inch since then. Just incredible out.  A foot or bust. Actually, based on radar, wouldn't be surprised if we hit 14".

  • Like 2
Link to comment
Share on other sites

1 minute ago, Chicago Storm said:

KMDW 160253Z 34015KT 1/4SM R31C/2400V2800FT +SN BLSN VV003 M13/M16 A3005 RMK AO2 SLP202 PRESENT WX DRSN SNINCR 3/24 P0002 60005 T11331161 58002 $

KMDW 160253Z 34015KT 1/4SM R31C/2400V2800FT +SN BLSN VV003 M13/M16 A3005 RMK AO2 SLP202 PRESENT WX DRSN SNINCR 3/24 P0002 60005 T11331161 58002 $
KMDW 160153Z 34014KT 1/4SM R31C/1400V3500FT +SN BLSN VV005 M12/M16 A3009 RMK AO2 SLP212 PRESENT WX DRSN SNINCR 3/22 P0002 T11221156 $

:yikes:

  • Like 1
Link to comment
Share on other sites

3 minutes ago, Chicago Storm said:

KMDW 160253Z 34015KT 1/4SM R31C/2400V2800FT +SN BLSN VV003 M13/M16 A3005 RMK AO2 SLP202 PRESENT WX DRSN SNINCR 3/24 P0002 60005 T11331161 58002 $

radar showing the insane rates may be slipping east a tad of them now... between them and the loop..and shifting west across northern Cook

 

Link to comment
Share on other sites

Just now, miamarsden8 said:

I guess it depends on what you consider significant. It could probably be here til like 1 am, which could give you theoretically 6-ish inches. That's significant.

I'd be thrilled with 6", but those snowfall rates won't last long. That initial batch of heavy snow moved through very quickly. Still, some impressive bands yet to come through. We'll see...

Link to comment
Share on other sites

Dry slot pushing pretty fast north. Might be ending here sooner than I thought. Definitely best snowstorm of this lame winter here. Sadly missed a lot of the heavy banding to the east. When all is said and done should be in 4-6in range for storm total. Hard to measure though because of all the drifting. Next storm trending towards a dud here so glad this one at least trended better here. Congrats to the Champaign, Indianapolis, Chicago folk. You all look to jackpot with this. 

Link to comment
Share on other sites

Cleveland Mets are saying the big snow should occur between 10pm and 3am. Looks like a dry socket over much of central/northeast Ohio, and more sleet and mix pulling up into Canton. This storm was REALLY hyped up here, hopefully it's not a total bust. People expecting 8-14 inches throughout Northern Ohio.

Link to comment
Share on other sites

Guessing by visual depth and shoveling earlier KSPI will end up in the 6.5 - 7.5" range. i don't know how you accurately measure with todays conditions. Drove by the airport on the way home and it's an expansive flatland with little wind block as one could imagine, but the road was bare and wind blown snow whisking across it.

Link to comment
Share on other sites

Guest
Reply to this topic...

×   Pasted as rich text.   Paste as plain text instead

  Only 75 emoji are allowed.

×   Your link has been automatically embedded.   Display as a link instead

×   Your previous content has been restored.   Clear editor

×   You cannot paste images directly. Upload or insert images from URL.

 Share

  • Recently Browsing   0 members

    No registered users viewing this page.

×
×
  • Create New...